createdAt,value
2019-02-12T00:08:26.066Z,96650.83
2019-02-12T00:24:28.748Z,96657.89
2019-02-12T00:26:54.841Z,96657.81
2019-02-12T00:34:53.390Z,96652.36
2019-02-12T00:37:25.568Z,96655.33
2019-02-12T00:45:37.646Z,96675.61
2019-02-12T00:48:11.615Z,96686.66
2019-02-12T00:50:51.203Z,96692.23
2019-02-12T00:53:30.673Z,96691.33
2019-02-12T00:58:55.897Z,96702.96
2019-02-12T01:01:28.107Z,96703.25
2019-02-12T01:07:13.866Z,96701.49
2019-02-12T01:09:53.392Z,96690.61
2019-02-12T01:12:32.953Z,96694.59
2019-02-12T01:15:15.422Z,96691.09
2019-02-12T01:17:55.051Z,96686.53
2019-02-12T01:28:54.044Z,96696.49
2019-02-12T01:33:59.034Z,96684.62
2019-02-12T01:39:05.686Z,96689.73
2019-02-12T02:08:36.183Z,96728.66
2019-02-12T02:11:14.449Z,96726.83
2019-02-12T02:19:12.234Z,96728.78
2019-02-12T02:21:44.696Z,96722.92
2019-02-12T02:32:00.425Z,96730.48
2019-02-12T02:39:31.533Z,96724.83
2019-02-12T02:41:57.636Z,96726.50
2019-02-12T02:44:23.872Z,96717.48
2019-02-12T02:46:50.037Z,96728.28
2019-02-12T02:49:16.430Z,96739.99
2019-02-12T02:51:42.671Z,96742.52
2019-02-12T02:54:08.884Z,96742.03
2019-02-12T02:56:35.029Z,96738.53
2019-02-12T02:59:01.218Z,96739.42
2019-02-12T03:01:27.314Z,96735.61
2019-02-12T03:03:53.565Z,96741.20
2019-02-12T03:06:19.721Z,96737.67
2019-02-12T03:08:45.929Z,96741.05
2019-02-12T03:11:12.035Z,96748.85
2019-02-12T03:13:38.230Z,96758.41
2019-02-12T03:16:04.368Z,96768.20
2019-02-12T03:18:32.480Z,96769.50
2019-02-12T03:20:58.655Z,96767.27
2019-02-12T03:23:24.759Z,96761.45
2019-02-12T03:25:50.951Z,96770.56
2019-02-12T03:28:17.171Z,96770.56
2019-02-12T03:30:43.370Z,96772.69
2019-02-12T03:33:09.638Z,96779.27
2019-02-12T03:35:35.750Z,96779.19
2019-02-12T03:38:01.941Z,96781.42
2019-02-12T03:40:28.091Z,96789.44
2019-02-12T03:42:54.270Z,96785.32
2019-02-12T03:45:20.392Z,96796.50
2019-02-12T03:47:47.726Z,96792.67
2019-02-12T03:50:13.889Z,96793.13
2019-02-12T03:52:40.639Z,96801.70
2019-02-12T03:55:09.593Z,96795.73
2019-02-12T03:57:35.811Z,96790.45
2019-02-12T04:00:02.868Z,96788.30
2019-02-12T04:02:29.211Z,96809.11
2019-02-12T04:04:56.573Z,96799.92
2019-02-12T04:07:22.783Z,96808.50
2019-02-12T04:09:48.914Z,96807.20
2019-02-12T04:12:15.165Z,96802.44
2019-02-12T04:14:41.369Z,96800.40
2019-02-12T04:17:07.523Z,96800.00
2019-02-12T04:19:33.845Z,96794.64
2019-02-12T04:22:00.022Z,96798.83
2019-02-12T04:24:29.038Z,96794.92
2019-02-12T04:26:55.238Z,96804.11
2019-02-12T04:29:21.416Z,96797.23
2019-02-12T04:31:47.597Z,96804.20
2019-02-12T04:34:13.934Z,96805.61
2019-02-12T04:36:40.092Z,96802.52
2019-02-12T04:39:06.293Z,96806.80
2019-02-12T04:41:32.800Z,96808.09
2019-02-12T04:43:58.950Z,96816.38
2019-02-12T04:46:25.100Z,96812.40
2019-02-12T04:48:52.299Z,96817.97
2019-02-12T04:51:19.536Z,96820.13
2019-02-12T04:53:45.758Z,96815.82
2019-02-12T04:56:11.882Z,96813.22
2019-02-12T04:58:38.034Z,96815.30
2019-02-12T05:01:04.128Z,96820.50
2019-02-12T05:03:30.318Z,96815.00
2019-02-12T05:05:56.538Z,96816.14
2019-02-12T05:08:22.741Z,96810.45
2019-02-12T05:11:02.258Z,96806.19
2019-02-12T05:13:28.443Z,96808.87
2019-02-12T05:15:54.565Z,96812.77
2019-02-12T05:18:20.742Z,96811.55
2019-02-12T05:20:46.872Z,96813.22
2019-02-12T05:23:13.036Z,96823.81
2019-02-12T05:25:39.186Z,96822.41
2019-02-12T05:28:05.511Z,96825.94
2019-02-12T05:30:33.505Z,96822.88
2019-02-12T05:32:59.713Z,96821.22
2019-02-12T05:35:25.860Z,96833.00
2019-02-12T05:37:52.033Z,96831.70
2019-02-12T05:40:18.183Z,96817.39
2019-02-12T05:42:44.401Z,96823.97
2019-02-12T05:45:11.491Z,96819.14
2019-02-12T05:47:37.695Z,96820.97
2019-02-12T05:50:07.617Z,96827.48
2019-02-12T05:52:33.895Z,96815.77
2019-02-12T05:55:00.404Z,96810.20
2019-02-12T05:57:26.704Z,96801.25
2019-02-12T05:59:52.847Z,96816.86
2019-02-12T06:02:18.998Z,96822.22
2019-02-12T06:04:45.189Z,96823.44
2019-02-12T06:07:12.461Z,96825.96
2019-02-12T06:09:38.614Z,96826.41
2019-02-12T06:12:04.934Z,96831.09
2019-02-12T06:14:32.093Z,96833.69
2019-02-12T06:16:58.295Z,96836.29
2019-02-12T06:19:24.452Z,96847.14
2019-02-12T06:21:51.730Z,96844.17
2019-02-12T06:24:18.982Z,96860.09
2019-02-12T06:26:45.197Z,96858.94
2019-02-12T06:29:11.352Z,96869.36
2019-02-12T06:31:37.618Z,96869.44
2019-02-12T06:34:03.752Z,96873.01
2019-02-12T06:36:31.002Z,96873.09
2019-02-12T06:38:57.170Z,96872.27
2019-02-12T06:41:23.424Z,96884.04
2019-02-12T06:43:49.690Z,96883.97
2019-02-12T06:46:15.828Z,96896.27
2019-02-12T06:48:42.011Z,96895.44
2019-02-12T06:51:08.156Z,96895.81
2019-02-12T06:53:34.368Z,96896.44
2019-02-12T06:56:00.640Z,96899.78
2019-02-12T06:58:26.883Z,96898.48
2019-02-12T07:00:52.959Z,96899.26
2019-02-12T07:03:20.978Z,96898.03
2019-02-12T07:06:16.941Z,96897.03
2019-02-12T07:08:52.963Z,96900.03
2019-02-12T07:11:28.891Z,96903.61
2019-02-12T07:14:04.619Z,96903.69
2019-02-12T07:16:54.332Z,96912.05
2019-02-12T07:19:33.470Z,96907.52
2019-02-12T07:22:06.922Z,96908.75
2019-02-12T07:24:42.696Z,96917.44
2019-02-12T07:27:12.623Z,96917.44
2019-02-12T07:29:54.675Z,96917.22
2019-02-12T07:32:41.458Z,96921.97
2019-02-12T07:35:23.351Z,96924.23
2019-02-12T07:38:02.081Z,96923.42
2019-02-12T07:40:34.703Z,96931.03
2019-02-12T07:43:04.691Z,96945.55
2019-02-12T07:45:52.439Z,96950.38
2019-02-12T07:48:28.250Z,96949.38
2019-02-12T07:51:07.254Z,96952.38
2019-02-12T07:53:39.996Z,96956.14
2019-02-12T07:56:21.811Z,96951.61
2019-02-12T07:59:09.623Z,96950.94
2019-02-12T08:02:14.794Z,96950.35
2019-02-12T08:04:56.936Z,96945.00
2019-02-12T08:07:46.844Z,96947.90
2019-02-12T08:10:28.811Z,96952.50
2019-02-12T08:13:14.222Z,96960.53
2019-02-12T08:15:49.731Z,96971.94
2019-02-12T08:18:22.774Z,96974.84
2019-02-12T08:21:01.488Z,96979.97
2019-02-12T08:23:41.183Z,96987.39
2019-02-12T08:26:21.764Z,96997.80
2019-02-12T08:29:20.826Z,96995.91
2019-02-12T08:32:17.760Z,97001.33
2019-02-12T08:35:07.445Z,96999.03
2019-02-12T08:38:04.408Z,97007.61
2019-02-12T08:40:49.703Z,97014.52
2019-02-12T08:43:42.604Z,97018.57
2019-02-12T08:46:21.542Z,97009.38
2019-02-12T08:49:06.591Z,97019.27
2019-02-12T08:51:48.033Z,97011.46
2019-02-12T08:54:28.024Z,97009.53
2019-02-12T08:57:01.111Z,97011.45
2019-02-12T08:59:36.437Z,97016.81
2019-02-12T09:02:08.891Z,97014.91
2019-02-12T09:04:57.201Z,97020.48
2019-02-12T09:07:36.600Z,97019.05
2019-02-12T09:10:15.536Z,97031.58
2019-02-12T09:13:15.556Z,97037.27
2019-02-12T09:16:00.691Z,97040.39
2019-02-12T09:18:39.919Z,97040.39
2019-02-12T09:21:31.064Z,97042.77
2019-02-12T09:24:16.133Z,97037.72
2019-02-12T09:27:04.720Z,97045.84
2019-02-12T09:29:51.344Z,97043.68
2019-02-12T09:32:38.109Z,97049.42
2019-02-12T09:35:20.063Z,97061.59
2019-02-12T09:38:10.899Z,97066.41
2019-02-12T09:40:43.914Z,97066.17
2019-02-12T09:43:22.927Z,97070.25
2019-02-12T09:46:09.644Z,97070.84
2019-02-12T09:49:00.508Z,97071.16
2019-02-12T09:51:42.974Z,97078.57
2019-02-12T09:54:18.805Z,97091.11
2019-02-12T09:56:48.839Z,97086.88
2019-02-12T09:59:37.253Z,97089.29
2019-02-12T10:02:28.540Z,97093.86
2019-02-12T10:05:04.544Z,97108.90
2019-02-12T10:07:37.601Z,97108.58
2019-02-12T10:10:11.775Z,97110.16
2019-02-12T10:12:44.739Z,97114.28
2019-02-12T10:15:31.149Z,97119.30
2019-02-12T10:18:31.964Z,97115.91
2019-02-12T10:21:02.079Z,97128.37
2019-02-12T10:23:53.487Z,97113.22
2019-02-12T10:26:23.391Z,97118.48
2019-02-12T10:29:12.903Z,97127.23
2019-02-12T10:31:42.631Z,97126.56
2019-02-12T10:34:09.549Z,97121.74
2019-02-12T10:36:35.683Z,97130.38
2019-02-12T10:39:02.092Z,97128.26
2019-02-12T10:41:29.402Z,97141.12
2019-02-12T10:43:55.634Z,97133.84
2019-02-12T10:46:23.597Z,97130.86
2019-02-12T10:48:49.691Z,97139.20
2019-02-12T10:51:15.894Z,97137.17
2019-02-12T10:53:42.010Z,97134.58
2019-02-12T10:56:08.206Z,97140.86
2019-02-12T10:58:34.307Z,97143.62
2019-02-12T11:01:00.518Z,97139.48
2019-02-12T11:03:26.596Z,97137.77
2019-02-12T11:05:54.508Z,97144.70
2019-02-12T11:08:20.668Z,97137.05
2019-02-12T11:10:46.778Z,97144.42
2019-02-12T11:13:12.897Z,97154.58
2019-02-12T11:15:39.152Z,97140.63
2019-02-12T11:18:05.334Z,97143.48
2019-02-12T11:20:31.523Z,97135.30
2019-02-12T11:22:57.683Z,97148.84
2019-02-12T11:25:23.995Z,97140.81
2019-02-12T11:27:51.941Z,97146.52
2019-02-12T11:30:19.850Z,97134.70
2019-02-12T11:32:46.178Z,97126.59
2019-02-12T11:35:12.436Z,97126.99
2019-02-12T11:37:38.975Z,97131.73
2019-02-12T11:40:17.843Z,97135.63
2019-02-12T11:42:44.120Z,97137.43
2019-02-12T11:45:16.503Z,97139.67
2019-02-12T11:47:42.796Z,97131.92
2019-02-12T11:50:09.791Z,97140.94
2019-02-12T11:52:36.006Z,97140.65
2019-02-12T11:55:03.569Z,97136.77
2019-02-12T11:57:29.896Z,97140.83
2019-02-12T11:59:56.242Z,97145.91
2019-02-12T12:02:24.460Z,97139.02
2019-02-12T12:04:50.680Z,97144.27
2019-02-12T12:07:17.019Z,97144.33
2019-02-12T12:09:45.143Z,97142.34
2019-02-12T12:12:11.346Z,97146.42
2019-02-12T12:14:37.722Z,97151.92
2019-02-12T12:17:04.039Z,97158.51
2019-02-12T12:19:32.308Z,97147.41
2019-02-12T12:21:58.523Z,97144.09
2019-02-12T12:24:24.844Z,97144.16
2019-02-12T12:26:51.048Z,97153.70
2019-02-12T12:29:17.391Z,97155.00
2019-02-12T12:31:43.732Z,97158.19
2019-02-12T12:34:17.911Z,97162.50
2019-02-12T12:36:49.430Z,97160.63
2019-02-12T12:39:15.937Z,97163.66
2019-02-12T12:41:42.808Z,97162.61
2019-02-12T12:44:09.214Z,97156.44
2019-02-12T12:46:35.530Z,97164.36
2019-02-12T12:49:01.889Z,97166.56
2019-02-12T12:51:28.143Z,97170.48
2019-02-12T12:53:56.933Z,97165.80
2019-02-12T12:56:25.390Z,97171.02
2019-02-12T12:58:53.829Z,97169.39
2019-02-12T13:01:22.014Z,97161.27
2019-02-12T13:03:50.179Z,97168.98
2019-02-12T13:06:18.560Z,97176.57
2019-02-12T13:08:44.812Z,97169.16
2019-02-12T13:11:13.154Z,97170.19
2019-02-12T13:13:41.625Z,97167.66
2019-02-12T13:16:10.262Z,97170.35
2019-02-12T13:18:38.140Z,97177.50
2019-02-12T13:21:04.428Z,97173.30
2019-02-12T13:23:30.956Z,97176.37
2019-02-12T13:25:58.780Z,97175.14
2019-02-12T13:28:25.093Z,97178.18
2019-02-12T13:30:51.235Z,97179.45
2019-02-12T13:33:17.351Z,97184.23
2019-02-12T13:35:43.552Z,97187.66
2019-02-12T13:38:09.731Z,97190.67
2019-02-12T13:40:35.886Z,97198.83
2019-02-12T13:43:02.040Z,97200.38
2019-02-12T13:45:30.255Z,97194.55
2019-02-12T13:47:56.593Z,97207.38
2019-02-12T13:50:22.794Z,97206.98
2019-02-12T13:52:49.522Z,97213.20
2019-02-12T13:55:17.671Z,97206.52
2019-02-12T13:57:43.752Z,97203.23
2019-02-12T14:00:14.856Z,97211.80
2019-02-12T14:02:41.346Z,97210.28
2019-02-12T14:05:10.905Z,97215.05
2019-02-12T14:07:37.169Z,97229.64
2019-02-12T14:10:05.425Z,97223.80
2019-02-12T14:12:31.669Z,97241.38
2019-02-12T14:14:57.815Z,97231.42
2019-02-12T14:17:23.978Z,97236.34
2019-02-12T14:19:50.148Z,97242.30
2019-02-12T14:22:16.298Z,97243.99
2019-02-12T14:24:42.505Z,97245.91
2019-02-12T14:27:08.666Z,97238.68
2019-02-12T14:29:34.984Z,97247.28
2019-02-12T14:32:01.256Z,97252.55
2019-02-12T14:34:30.577Z,97256.80
2019-02-12T14:36:57.435Z,97258.52
2019-02-12T14:39:23.959Z,97264.89
2019-02-12T14:41:50.076Z,97269.66
2019-02-12T14:44:16.784Z,97274.26
2019-02-12T14:46:42.907Z,97266.38
2019-02-12T14:49:09.127Z,97273.52
2019-02-12T14:51:35.431Z,97286.95
2019-02-12T14:54:01.535Z,97288.33
2019-02-12T14:56:28.087Z,97290.09
2019-02-12T14:58:54.382Z,97300.84
2019-02-12T15:01:20.630Z,97300.21
2019-02-12T15:03:46.770Z,97299.61
2019-02-12T15:06:13.050Z,97300.21
2019-02-12T15:08:39.194Z,97303.45
2019-02-12T15:11:05.339Z,97297.23
2019-02-12T15:13:31.481Z,97305.14
2019-02-12T15:15:57.855Z,97295.16
2019-02-12T15:18:24.199Z,97298.69
2019-02-12T15:20:50.377Z,97302.76
2019-02-12T15:23:16.957Z,97314.27
2019-02-12T15:25:43.181Z,97312.97
2019-02-12T15:28:09.300Z,97312.11
2019-02-12T15:30:35.512Z,97305.74
2019-02-12T15:33:01.753Z,97310.58
2019-02-12T15:35:28.026Z,97310.58
2019-02-12T15:37:54.250Z,97318.86
2019-02-12T15:40:20.407Z,97318.08
2019-02-12T15:42:46.689Z,97319.86
2019-02-12T15:45:16.088Z,97326.67
2019-02-12T15:47:42.675Z,97324.22
2019-02-12T15:50:10.152Z,97324.67
2019-02-12T15:52:38.112Z,97326.45
2019-02-12T15:55:10.103Z,97324.22
2019-02-12T15:57:40.300Z,97328.73
2019-02-12T16:00:09.989Z,97323.99
2019-02-12T16:02:36.278Z,97327.42
2019-02-12T16:05:02.477Z,97330.58
2019-02-12T16:07:28.656Z,97332.56
2019-02-12T16:09:56.998Z,97326.11
2019-02-12T16:12:24.769Z,97330.95
2019-02-12T16:14:53.054Z,97336.69
2019-02-12T16:17:19.954Z,97343.73
2019-02-12T16:19:47.096Z,97341.12
2019-02-12T16:22:15.159Z,97347.26
2019-02-12T16:25:10.683Z,97351.55
2019-02-12T16:27:37.760Z,97348.04
2019-02-12T16:30:15.531Z,97351.95
2019-02-12T16:32:42.315Z,97357.55
2019-02-12T16:35:13.739Z,97359.77
2019-02-12T16:37:40.650Z,97357.05
2019-02-12T16:40:09.919Z,97356.51
2019-02-12T16:42:36.543Z,97355.66
2019-02-12T16:45:14.476Z,97359.70
2019-02-12T16:47:43.190Z,97364.84
2019-02-12T16:50:09.502Z,97366.15
2019-02-12T16:52:40.032Z,97364.47
2019-02-12T16:55:09.414Z,97367.08
2019-02-12T16:57:36.184Z,97374.75
2019-02-12T17:00:13.696Z,97378.66
2019-02-12T17:02:41.101Z,97383.09
2019-02-12T17:05:09.713Z,97384.46
2019-02-12T17:07:38.018Z,97392.73
2019-02-12T17:10:07.018Z,97390.74
2019-02-12T17:12:33.551Z,97392.49
2019-02-12T17:15:00.021Z,97401.09
2019-02-12T17:17:26.323Z,97410.52
2019-02-12T17:19:54.795Z,97411.83
2019-02-12T17:22:21.138Z,97416.97
2019-02-12T17:24:47.639Z,97420.80
2019-02-12T17:27:13.946Z,97421.52
2019-02-12T17:29:40.121Z,97424.64
2019-02-12T17:32:06.463Z,97424.36
2019-02-12T17:34:36.965Z,97421.38
2019-02-12T17:37:03.656Z,97429.20
2019-02-12T17:39:30.266Z,97436.02
2019-02-12T17:41:56.633Z,97436.02
2019-02-12T17:44:22.754Z,97438.11
2019-02-12T17:46:49.080Z,97442.40
2019-02-12T17:49:15.350Z,97440.65
2019-02-12T17:55:32.701Z,97454.44
2019-02-12T18:07:53.657Z,97460.69
2019-02-12T18:10:19.943Z,97457.80
2019-02-12T18:12:46.345Z,97466.17
2019-02-12T18:15:14.588Z,97474.95
2019-02-12T18:17:41.115Z,97470.59
2019-02-12T18:20:12.069Z,97473.72
2019-02-12T18:22:38.323Z,97483.25
2019-02-12T18:25:06.894Z,97482.84
2019-02-12T18:27:33.092Z,97492.74
2019-02-12T18:29:59.370Z,97484.07
2019-02-12T18:32:25.549Z,97490.07
2019-02-12T18:34:51.850Z,97498.34
2019-02-12T18:37:18.090Z,97497.03
2019-02-12T18:39:44.662Z,97503.17
2019-02-12T18:42:10.900Z,97498.88
2019-02-12T18:44:37.148Z,97506.16
2019-02-12T18:47:03.283Z,97500.05
2019-02-12T18:49:29.518Z,97503.95
2019-02-12T18:51:55.741Z,97503.41
2019-02-12T18:54:22.229Z,97505.27
2019-02-12T18:56:48.344Z,97505.57
2019-02-12T18:59:14.526Z,97512.53
2019-02-12T19:01:41.959Z,97514.31
2019-02-12T19:04:08.194Z,97510.72
2019-02-12T19:06:34.595Z,97514.31
2019-02-12T19:09:00.854Z,97516.06
2019-02-12T19:11:27.020Z,97515.14
2019-02-12T19:13:53.590Z,97513.14
2019-02-12T19:16:19.761Z,97510.74
2019-02-12T19:18:46.157Z,97519.38
2019-02-12T19:21:12.472Z,97511.19
2019-02-12T19:23:38.834Z,97516.71
2019-02-12T19:26:05.079Z,97523.16
2019-02-12T19:28:31.352Z,97520.48
2019-02-12T19:30:57.477Z,97521.41
2019-02-12T19:33:23.928Z,97518.02
2019-02-12T19:35:50.111Z,97535.81
2019-02-12T19:38:16.340Z,97527.61
2019-02-12T19:40:42.569Z,97533.20
2019-02-12T19:43:08.708Z,97528.38
2019-02-12T19:45:35.099Z,97530.53
2019-02-12T19:48:01.315Z,97533.92
2019-02-12T19:50:27.511Z,97528.78
2019-02-12T19:52:54.021Z,97533.72
2019-02-12T19:55:20.477Z,97532.75
2019-02-12T19:57:47.923Z,97535.78
2019-02-12T20:00:19.736Z,97538.23
2019-02-12T20:02:45.946Z,97544.74
2019-02-12T20:05:12.970Z,97542.61
2019-02-12T20:07:39.613Z,97540.58
2019-02-12T20:10:11.154Z,97537.13
2019-02-12T20:12:39.544Z,97527.56
2019-02-12T20:15:08.549Z,97533.34
2019-02-12T20:17:34.871Z,97531.28
2019-02-12T20:20:10.005Z,97533.95
2019-02-12T20:22:37.571Z,97530.17
2019-02-12T20:25:05.021Z,97533.28
2019-02-12T20:27:36.043Z,97537.32
2019-02-12T20:29:59.761Z,97537.83
2019-02-12T20:32:25.938Z,97529.77
2019-02-12T20:34:53.235Z,97537.70
2019-02-12T20:37:19.398Z,97539.86
2019-02-12T20:39:46.606Z,97538.63
2019-02-12T20:42:12.794Z,97539.00
2019-02-12T20:44:38.986Z,97537.32
2019-02-12T20:47:05.110Z,97532.69
2019-02-12T20:49:31.347Z,97531.51
2019-02-12T20:51:57.494Z,97527.41
2019-02-12T20:54:23.701Z,97533.13
2019-02-12T20:56:49.848Z,97529.34
2019-02-12T20:59:16.156Z,97530.20
2019-02-12T21:01:42.328Z,97533.38
2019-02-12T21:04:08.711Z,97533.81
2019-02-12T21:06:34.811Z,97536.09
2019-02-12T21:09:01.052Z,97540.45
2019-02-12T21:11:27.421Z,97540.50
2019-02-12T21:13:53.743Z,97538.82
2019-02-12T21:16:21.637Z,97538.82
2019-02-12T21:18:47.968Z,97539.20
2019-02-12T21:21:14.200Z,97550.47
2019-02-12T21:23:40.414Z,97552.16
2019-02-12T21:26:06.691Z,97554.19
2019-02-12T21:28:32.923Z,97552.77
2019-02-12T21:30:59.234Z,97550.42
2019-02-12T21:33:25.338Z,97546.39
2019-02-12T21:35:51.523Z,97545.83
2019-02-12T21:38:18.151Z,97549.09
2019-02-12T21:40:44.360Z,97561.92
2019-02-12T21:43:10.566Z,97557.95
2019-02-12T21:45:38.332Z,97565.11
2019-02-12T21:48:04.682Z,97564.22
